Pickleville, Utah
Current Conditions -  °F | °C
As of 11:51 PM on Friday 24 Oct 2014 (Local Time) from KLGU Reporting Station
Clear Clear  
Wind Chill:   Ceiling: Unl
Heat Index:   Visibility: 10mi
Dew Point:   Wind: 0mph
Humidity: 70%   Direction: NA
Pressure: 30.1"   Gusts: NA
Location:  41.9408°N, 111.433°W
Report Text: KLGU 250551Z AUTO 00000KT 10SM CLR 06/01 A3010 RMK AO2 SLP177 T00560006 10222 20050 58001 TSNO
Loading
Personal Weather Stations






























Interactive Weather Map
Tropical Storm Tracking
New forecast layout! Learn more

10-Day Weather Forecast

Advertisements
Track Severe Weather on mobile